Time;durP1;ratioP1;P1;durP2;ratioP2;P2;SDS_P1;SDS_P2;PMS_P1;PMS_P2;Temp;Humidity;BMP_temperature;BMP_pressure;BME280_temperature;BME280_humidity;BME280_pressure;Samples;Min_cycle;Max_cycle;Signal;HPM_P1;HPM_P2
2021/12/31 00:00:14;;;;;;;5.72;2.25;;;;;;;12.72;89.66;101689.50;4978899;28;20053;-76
2021/12/31 00:02:39;;;;;;;6.07;2.30;;;;;;;12.75;89.63;101699.38;4976412;28;20484;-76
2021/12/31 00:05:06;;;;;;;7.07;2.35;;;;;;;12.74;89.17;101694.91;4991527;28;20027;-76
2021/12/31 00:07:32;;;;;;;4.57;2.45;;;;;;;12.75;89.27;101694.78;4991916;28;20030;-76
2021/12/31 00:10:00;;;;;;;5.50;2.53;;;;;;;12.78;88.90;101693.72;4985999;28;20487;-76
2021/12/31 00:12:27;;;;;;;6.22;2.33;;;;;;;12.78;88.42;101685.50;4987896;28;20494;-76
2021/12/31 00:14:52;;;;;;;5.82;2.15;;;;;;;12.79;88.63;101698.19;4987185;28;20113;-76
2021/12/31 00:17:17;;;;;;;4.32;2.40;;;;;;;12.79;88.58;101706.38;4986701;28;20602;-76
2021/12/31 00:19:45;;;;;;;4.47;2.25;;;;;;;12.80;88.36;101699.06;4989351;28;20049;-74
2021/12/31 00:23:14;;;;;;;7.05;2.08;;;;;;;12.82;88.34;101706.16;4983465;28;20406;-76
2021/12/31 00:25:06;;;;;;;5.47;3.00;;;;;;;12.80;88.76;101691.72;4991427;28;20441;-76
2021/12/31 00:27:32;;;;;;;6.70;2.25;;;;;;;12.76;88.95;101698.38;4987067;28;20022;-76
2021/12/31 00:29:57;;;;;;;9.27;2.60;;;;;;;12.75;88.96;101707.56;4991109;28;20084;-76
2021/12/31 00:32:22;;;;;;;5.78;2.25;;;;;;;12.73;88.81;101704.94;4993086;28;20029;-77
2021/12/31 00:34:47;;;;;;;8.43;2.50;;;;;;;12.74;88.70;101697.63;4993460;28;20022;-77
2021/12/31 00:37:13;;;;;;;5.53;2.67;;;;;;;12.73;88.61;101696.75;4991075;28;20483;-77
2021/12/31 00:39:38;;;;;;;8.00;2.60;;;;;;;12.70;88.97;101699.69;4991943;28;20030;-77
2021/12/31 00:42:04;;;;;;;5.82;2.78;;;;;;;12.68;89.02;101703.47;4986427;28;20026;-77
2021/12/31 00:44:29;;;;;;;3.50;2.20;;;;;;;12.72;88.50;101699.56;4980500;28;20042;-76
2021/12/31 00:46:55;;;;;;;6.72;2.28;;;;;;;12.68;88.69;101698.03;4993563;28;20530;-76
2021/12/31 00:49:20;;;;;;;6.35;2.60;;;;;;;12.68;88.89;101693.47;4993144;28;20031;-76
2021/12/31 00:51:45;;;;;;;5.70;2.35;;;;;;;12.68;88.57;101690.72;4984497;28;20244;-77
2021/12/31 00:54:11;;;;;;;8.35;2.70;;;;;;;12.70;88.63;101693.34;4990587;28;20505;-76
2021/12/31 00:56:36;;;;;;;3.78;2.13;;;;;;;12.68;88.57;101701.66;4984246;28;20054;-76
2021/12/31 00:59:01;;;;;;;6.03;2.40;;;;;;;12.67;88.50;101701.72;4979390;28;20109;-76
2021/12/31 01:01:27;;;;;;;4.97;2.22;;;;;;;12.65;88.20;101695.50;4986775;28;20028;-76
2021/12/31 01:03:53;;;;;;;4.63;2.22;;;;;;;12.67;88.45;101708.06;4992627;28;20034;-76
2021/12/31 01:06:19;;;;;;;4.60;2.55;;;;;;;12.65;88.61;101701.84;4991816;28;20409;-75
2021/12/31 01:08:44;;;;;;;4.50;2.40;;;;;;;12.65;88.60;101709.16;4980535;28;20033;-75
2021/12/31 01:11:10;;;;;;;4.38;2.08;;;;;;;12.66;88.42;101705.44;4982141;28;20046;-76
2021/12/31 01:13:49;;;;;;;7.13;3.42;;;;;;;12.65;88.40;101707.31;4980565;28;20314;-75
2021/12/31 01:16:17;;;;;;;9.50;3.08;;;;;;;12.63;88.53;101701.06;4983738;28;20054;-76
2021/12/31 01:21:15;;;;;;;10.02;2.78;;;;;;;12.62;88.37;101701.16;4980971;28;20395;-76
2021/12/31 01:23:40;;;;;;;6.55;2.28;;;;;;;12.62;88.52;101704.78;4984498;28;20026;-76
2021/12/31 01:26:06;;;;;;;7.75;2.38;;;;;;;12.62;88.49;101698.44;4985212;28;20471;-76
2021/12/31 01:28:31;;;;;;;9.30;2.30;;;;;;;12.62;88.44;101698.44;4987593;28;20044;-76
2021/12/31 01:30:56;;;;;;;6.40;2.22;;;;;;;12.59;88.33;101696.81;4989668;28;20471;-76
2021/12/31 01:33:22;;;;;;;5.90;2.03;;;;;;;12.59;88.38;101688.63;4985028;28;20033;-77
2021/12/31 01:35:47;;;;;;;5.05;2.10;;;;;;;12.63;88.24;101697.47;4988818;28;20065;-77
2021/12/31 01:38:13;;;;;;;7.32;2.20;;;;;;;12.62;88.08;101698.44;4976603;28;20487;-76
2021/12/31 01:40:38;;;;;;;5.85;1.92;;;;;;;12.60;88.14;101697.69;4978351;28;20030;-76
2021/12/31 01:43:03;;;;;;;6.45;2.42;;;;;;;12.59;88.05;101713.19;4979369;28;20031;-76
2021/12/31 01:45:32;;;;;;;7.97;2.05;;;;;;;12.61;87.61;101710.34;4978190;28;20841;-76
2021/12/31 01:48:07;;;;;;;8.35;2.50;;;;;;;12.62;88.10;101714.81;4978254;28;20403;-76
2021/12/31 01:50:33;;;;;;;4.70;2.30;;;;;;;12.62;87.85;101714.81;4988233;28;20018;-75
2021/12/31 01:53:00;;;;;;;8.30;2.60;;;;;;;12.64;88.19;101715.59;4989387;28;20030;-76
2021/12/31 01:55:33;;;;;;;5.68;2.20;;;;;;;12.62;87.95;101712.09;4977412;28;20358;-76
2021/12/31 01:58:00;;;;;;;4.95;2.10;;;;;;;12.59;87.47;101709.56;4989711;28;20174;-77
2021/12/31 02:00:25;;;;;;;6.47;2.50;;;;;;;12.61;88.14;101718.53;4986869;28;20101;-76
2021/12/31 02:02:51;;;;;;;6.95;2.25;;;;;;;12.61;87.86;101724.00;4989275;28;20172;-77
2021/12/31 02:05:17;;;;;;;4.97;2.35;;;;;;;12.61;87.59;101718.53;4984878;28;20027;-76
2021/12/31 02:07:42;;;;;;;4.75;1.77;;;;;;;12.61;87.66;101716.69;4985202;28;20368;-76
2021/12/31 02:10:09;;;;;;;5.72;2.25;;;;;;;12.64;87.52;101721.06;4988566;28;20466;-77
2021/12/31 02:12:40;;;;;;;5.80;2.55;;;;;;;12.65;87.73;101725.53;4982274;28;20093;-76
2021/12/31 02:15:05;;;;;;;7.93;2.17;;;;;;;12.64;87.45;101726.53;4985062;28;20404;-75
2021/12/31 02:17:31;;;;;;;9.35;2.70;;;;;;;12.63;87.36;101722.91;4986296;28;20030;-76
2021/12/31 02:20:05;;;;;;;7.85;2.10;;;;;;;12.66;86.96;101738.22;4976983;28;20542;-77
2021/12/31 02:22:31;;;;;;;6.80;2.95;;;;;;;12.63;87.47;101724.75;4983169;28;20038;-76
2021/12/31 02:25:00;;;;;;;6.47;2.33;;;;;;;12.62;87.77;101715.69;4986003;28;20088;-77
2021/12/31 02:27:25;;;;;;;7.70;2.38;;;;;;;12.62;86.84;101707.50;4982780;28;20386;-77
2021/12/31 02:29:51;;;;;;;7.90;2.25;;;;;;;12.63;87.27;101711.97;4980673;28;20034;-76
2021/12/31 02:32:16;;;;;;;6.75;2.28;;;;;;;12.62;87.09;101712.97;4987210;28;20030;-77
2021/12/31 02:34:42;;;;;;;4.10;2.38;;;;;;;12.61;86.91;101703.03;4971839;28;20494;-77
2021/12/31 02:37:07;;;;;;;6.53;2.63;;;;;;;12.61;87.20;101711.22;4977054;28;20033;-77
2021/12/31 02:39:34;;;;;;;3.80;1.92;;;;;;;12.62;86.86;101706.63;4974914;28;20049;-77
2021/12/31 02:42:00;;;;;;;5.82;2.08;;;;;;;12.61;86.70;101699.44;4981824;28;20038;-77
2021/12/31 02:44:25;;;;;;;2.75;1.75;;;;;;;12.63;86.67;101706.50;4976708;28;20057;-77
2021/12/31 02:46:50;;;;;;;5.43;1.90;;;;;;;12.63;86.51;101708.38;4976413;28;20026;-76
2021/12/31 02:49:19;;;;;;;6.25;1.88;;;;;;;12.60;87.00;101695.81;4980929;28;20077;-77
2021/12/31 02:51:44;;;;;;;3.70;1.98;;;;;;;12.61;87.15;101699.44;4980367;28;20061;-77
2021/12/31 02:54:11;;;;;;;5.13;2.17;;;;;;;12.59;87.09;101705.00;4976704;28;20030;-77
2021/12/31 02:56:37;;;;;;;8.23;2.53;;;;;;;12.58;87.11;101691.44;4983762;28;20422;-77
2021/12/31 02:59:02;;;;;;;4.90;2.10;;;;;;;12.54;87.14;101689.88;4981905;28;20085;-77
2021/12/31 03:01:28;;;;;;;6.93;2.00;;;;;;;12.57;86.91;101697.88;4984351;28;20034;-77
2021/12/31 03:03:55;;;;;;;3.63;2.05;;;;;;;12.55;87.15;101698.00;4984368;28;20030;-77
2021/12/31 03:06:21;;;;;;;6.50;2.47;;;;;;;12.52;87.35;101706.38;4982133;28;20033;-78
2021/12/31 03:08:50;;;;;;;7.10;2.30;;;;;;;12.52;87.07;101700.91;4979955;28;20030;-77
2021/12/31 03:11:21;;;;;;;10.43;2.88;;;;;;;12.50;87.42;101700.16;4977765;28;20058;-77
2021/12/31 03:13:51;;;;;;;14.65;2.05;;;;;;;12.49;87.25;101691.06;4979773;28;20031;-77
2021/12/31 03:16:20;;;;;;;4.22;2.00;;;;;;;12.49;87.37;101698.38;4978193;28;20172;-77
2021/12/31 03:18:45;;;;;;;6.40;2.10;;;;;;;12.46;87.29;101690.41;4980059;28;20081;-77
2021/12/31 03:21:20;;;;;;;4.65;2.00;;;;;;;12.46;87.17;101685.84;4976931;28;20026;-77
2021/12/31 03:23:46;;;;;;;9.60;2.83;;;;;;;12.43;87.39;101687.88;4973491;28;20034;-77
2021/12/31 03:26:11;;;;;;;7.70;2.28;;;;;;;12.41;87.25;101689.84;4985140;28;20026;-77
2021/12/31 03:28:37;;;;;;;6.93;2.50;;;;;;;12.38;87.34;101676.41;4983803;28;20061;-76
2021/12/31 03:31:02;;;;;;;5.25;2.47;;;;;;;12.37;87.53;101689.19;4983524;28;20030;-76
2021/12/31 03:33:27;;;;;;;9.02;3.00;;;;;;;12.38;87.41;101682.72;4985726;28;20037;-76
2021/12/31 03:35:53;;;;;;;4.88;2.50;;;;;;;12.37;87.56;101678.25;4976085;28;20145;-76
2021/12/31 03:38:18;;;;;;;7.00;2.25;;;;;;;12.37;87.37;101677.38;4982750;28;20062;-77
2021/12/31 03:40:46;;;;;;;5.25;2.42;;;;;;;12.36;87.43;101681.97;4979733;28;20057;-76
2021/12/31 03:43:11;;;;;;;5.22;2.58;;;;;;;12.35;87.15;101680.19;4977130;28;20097;-77
2021/12/31 03:45:37;;;;;;;7.10;1.83;;;;;;;12.32;87.35;101674.97;4975605;28;20117;-76
2021/12/31 03:48:03;;;;;;;7.82;2.60;;;;;;;12.28;87.53;101667.97;4986804;28;20029;-76
2021/12/31 03:50:28;;;;;;;6.82;2.00;;;;;;;12.27;87.72;101677.13;4987030;28;20425;-77
2021/12/31 03:52:54;;;;;;;5.03;2.95;;;;;;;12.23;87.52;101667.38;4982489;28;20065;-76
2021/12/31 03:55:20;;;;;;;6.75;2.40;;;;;;;12.23;87.70;101676.44;4986936;28;20056;-77
2021/12/31 03:57:45;;;;;;;4.38;2.20;;;;;;;12.21;87.83;101672.06;4980804;28;20045;-77
2021/12/31 04:00:11;;;;;;;9.25;2.28;;;;;;;12.22;87.73;101673.81;4975618;28;20026;-76
2021/12/31 04:02:37;;;;;;;5.80;2.72;;;;;;;12.22;87.91;101677.44;4987091;28;20026;-76
2021/12/31 04:05:03;;;;;;;12.00;2.78;;;;;;;12.23;87.90;101675.56;4984385;28;20053;-76
2021/12/31 04:07:28;;;;;;;7.43;2.88;;;;;;;12.26;87.72;101675.34;4985742;28;20116;-76
2021/12/31 04:09:54;;;;;;;8.30;2.85;;;;;;;12.25;87.75;101681.78;4987084;28;20049;-77
2021/12/31 04:12:19;;;;;;;6.30;2.65;;;;;;;12.23;87.67;101670.13;4985245;28;20261;-77
2021/12/31 04:14:44;;;;;;;6.25;2.35;;;;;;;12.23;87.60;101668.25;4981586;28;20026;-76
2021/12/31 04:17:10;;;;;;;8.07;3.03;;;;;;;12.24;87.83;101674.59;4984974;28;20026;-76
2021/12/31 04:19:35;;;;;;;4.78;2.63;;;;;;;12.25;87.73;101679.94;4983331;28;20077;-76
2021/12/31 04:22:01;;;;;;;11.15;2.65;;;;;;;12.25;87.80;101673.59;4982562;28;20501;-77
2021/12/31 04:24:51;;;;;;;4.47;2.22;;;;;;;12.28;87.76;101678.00;4978007;28;20026;-77
2021/12/31 04:27:14;;;;;;;6.30;2.67;;;;;;;12.26;88.03;101678.06;4985030;28;20041;-77
2021/12/31 04:29:40;;;;;;;6.32;2.55;;;;;;;12.26;88.02;101675.34;4980082;28;20442;-76
2021/12/31 04:32:06;;;;;;;6.93;3.08;;;;;;;12.29;87.53;101666.97;4986662;28;20065;-76
2021/12/31 04:34:32;;;;;;;8.02;2.88;;;;;;;12.26;87.81;101658.97;4982974;28;20034;-76
2021/12/31 04:36:58;;;;;;;6.13;2.75;;;;;;;12.29;87.72;101657.91;4985637;28;20038;-76
2021/12/31 04:39:23;;;;;;;8.07;3.08;;;;;;;12.27;87.57;101652.56;4983310;28;20476;-76
2021/12/31 04:41:49;;;;;;;8.27;3.63;;;;;;;12.29;87.68;101647.00;4972954;28;20406;-76
2021/12/31 04:44:14;;;;;;;7.07;2.90;;;;;;;12.29;87.77;101652.47;4973181;28;20502;-75
2021/12/31 04:46:40;;;;;;;6.18;2.88;;;;;;;12.30;87.75;101643.28;4985090;28;20066;-76
2021/12/31 04:49:08;;;;;;;6.65;3.10;;;;;;;12.29;87.38;101638.81;4985537;28;20083;-77
2021/12/31 04:51:33;;;;;;;9.40;3.15;;;;;;;12.28;87.58;101637.94;4983082;28;20033;-77
2021/12/31 04:53:59;;;;;;;10.63;3.35;;;;;;;12.29;87.04;101631.50;4980164;28;20043;-77
2021/12/31 04:56:24;;;;;;;7.82;3.25;;;;;;;12.29;87.06;101642.41;4983557;28;20034;-76
2021/12/31 04:58:49;;;;;;;10.77;3.35;;;;;;;12.28;87.37;101650.72;4984577;28;20169;-77
2021/12/31 05:01:16;;;;;;;7.43;3.05;;;;;;;12.27;87.01;101649.84;4985826;28;20577;-77
2021/12/31 05:03:42;;;;;;;5.90;3.17;;;;;;;12.23;87.15;101646.44;4990295;28;20105;-77
2021/12/31 05:06:07;;;;;;;10.60;3.13;;;;;;;12.27;87.00;101641.66;4987852;28;20153;-77
2021/12/31 05:08:33;;;;;;;8.23;3.13;;;;;;;12.28;86.78;101645.25;4982016;28;20429;-77
2021/12/31 05:10:58;;;;;;;4.55;2.83;;;;;;;12.24;87.04;101648.19;4978185;28;20059;-76
2021/12/31 05:13:23;;;;;;;9.40;2.42;;;;;;;12.24;87.19;101642.72;4981561;28;20041;-76
2021/12/31 05:15:51;;;;;;;9.50;3.75;;;;;;;12.23;86.75;101653.75;4984184;28;20608;-76
2021/12/31 05:18:17;;;;;;;9.18;2.95;;;;;;;12.25;86.81;101646.31;4987943;28;20133;-76
2021/12/31 05:20:42;;;;;;;5.88;2.80;;;;;;;12.25;86.64;101640.88;4980803;28;20037;-76
2021/12/31 05:23:08;;;;;;;5.25;2.95;;;;;;;12.26;86.91;101642.59;4988909;28;20469;-76
2021/12/31 05:25:33;;;;;;;9.00;2.92;;;;;;;12.23;86.95;101646.44;4979319;28;20031;-76
2021/12/31 05:27:59;;;;;;;6.80;3.10;;;;;;;12.22;86.68;101635.63;4988042;28;20034;-76
2021/12/31 05:30:27;;;;;;;12.05;3.65;;;;;;;12.20;86.57;101630.25;4985571;28;20077;-75
2021/12/31 05:32:53;;;;;;;8.30;3.58;;;;;;;12.20;86.64;101623.94;4973727;28;20034;-76
2021/12/31 05:35:19;;;;;;;6.97;2.85;;;;;;;12.16;86.48;101623.25;4975168;28;20064;-76
2021/12/31 05:37:44;;;;;;;9.18;2.80;;;;;;;12.16;86.53;101612.34;4982605;28;20023;-76
2021/12/31 05:40:10;;;;;;;5.65;2.90;;;;;;;12.12;86.45;101627.16;4982183;28;20035;-76
2021/12/31 05:42:36;;;;;;;5.57;2.63;;;;;;;12.09;86.48;101615.59;4977295;28;20089;-76
2021/12/31 05:45:02;;;;;;;6.78;3.22;;;;;;;12.05;86.57;101614.06;4981251;28;20022;-75
2021/12/31 05:47:28;;;;;;;6.75;2.95;;;;;;;12.00;86.81;101608.91;4988821;28;20109;-76
2021/12/31 05:49:53;;;;;;;4.78;3.20;;;;;;;11.94;87.01;101595.69;4979624;28;20030;-76
2021/12/31 05:52:19;;;;;;;13.13;3.10;;;;;;;11.90;86.96;101599.59;4985597;28;20057;-77
2021/12/31 05:54:44;;;;;;;5.38;2.45;;;;;;;11.82;87.04;101601.91;4984487;28;20080;-75
2021/12/31 05:57:09;;;;;;;5.30;2.33;;;;;;;11.71;87.48;101600.75;4984223;28;20044;-77
2021/12/31 05:59:35;;;;;;;5.47;2.90;;;;;;;11.65;87.08;101606.59;4978599;28;20042;-77
2021/12/31 06:02:00;;;;;;;5.32;2.53;;;;;;;11.62;87.50;101611.38;4986387;28;20030;-77
2021/12/31 06:04:25;;;;;;;6.65;2.40;;;;;;;11.59;87.56;101619.75;4989118;28;20029;-77
2021/12/31 06:06:51;;;;;;;5.35;2.35;;;;;;;11.55;87.74;101618.19;4986930;28;20494;-76
2021/12/31 06:09:16;;;;;;;5.20;2.38;;;;;;;11.49;87.80;101612.16;4978911;28;20023;-77
2021/12/31 06:11:42;;;;;;;7.28;2.83;;;;;;;11.47;87.84;101614.13;4987101;28;20534;-76
2021/12/31 06:14:10;;;;;;;8.35;2.40;;;;;;;11.46;87.80;101623.25;4982939;28;20134;-77
2021/12/31 06:16:40;;;;;;;4.82;2.78;;;;;;;11.42;87.87;101613.53;4983973;28;20576;-76
2021/12/31 06:19:07;;;;;;;8.43;3.45;;;;;;;11.41;88.19;101632.69;4980525;28;20030;-76
2021/12/31 06:21:38;;;;;;;7.43;2.42;;;;;;;11.39;88.30;101631.94;4981136;28;20109;-77
2021/12/31 06:24:04;;;;;;;6.28;2.42;;;;;;;11.36;88.34;101630.25;4987605;28;20034;-77
2021/12/31 06:26:29;;;;;;;3.47;2.45;;;;;;;11.32;88.30;101641.44;4980848;28;20038;-76
2021/12/31 06:28:55;;;;;;;5.65;2.47;;;;;;;11.30;88.40;101644.28;4974932;28;20477;-77
2021/12/31 06:31:21;;;;;;;6.03;2.53;;;;;;;11.30;88.24;101636.09;4985116;28;20499;-76
2021/12/31 06:33:46;;;;;;;4.32;2.50;;;;;;;11.28;88.16;101635.31;4985203;28;20042;-76
2021/12/31 06:36:12;;;;;;;5.07;2.78;;;;;;;11.24;88.29;101628.31;4983146;28;20537;-77
2021/12/31 06:38:37;;;;;;;4.07;2.60;;;;;;;11.23;88.43;101642.88;4986814;28;20065;-77
2021/12/31 06:41:02;;;;;;;8.68;2.72;;;;;;;11.22;88.33;101641.16;4984672;28;20556;-77
2021/12/31 06:43:27;;;;;;;7.38;2.72;;;;;;;11.16;88.55;101636.09;4981902;28;20033;-77
2021/12/31 06:45:53;;;;;;;11.93;2.67;;;;;;;11.12;88.47;101642.69;4979967;28;20038;-76
2021/12/31 06:48:18;;;;;;;8.85;2.65;;;;;;;11.11;88.75;101639.09;4983942;28;20386;-77
2021/12/31 06:50:43;;;;;;;4.38;2.80;;;;;;;11.08;88.70;101643.84;4980867;28;20114;-77
2021/12/31 06:53:09;;;;;;;8.10;2.70;;;;;;;11.03;88.92;101657.75;4999840;28;20030;-77
2021/12/31 06:55:34;;;;;;;11.43;3.10;;;;;;;10.95;88.95;101644.59;4980477;28;20035;-77
2021/12/31 06:57:59;;;;;;;6.45;2.75;;;;;;;10.99;88.86;101653.47;4985495;28;20037;-77
2021/12/31 07:00:25;;;;;;;8.13;3.03;;;;;;;10.94;88.87;101652.88;4978213;28;20467;-77
2021/12/31 07:02:50;;;;;;;7.43;3.13;;;;;;;10.92;88.97;101652.09;4978127;28;20026;-77
2021/12/31 07:05:17;;;;;;;5.60;2.88;;;;;;;10.90;89.15;101644.00;4981160;28;20045;-76
2021/12/31 07:07:42;;;;;;;6.00;2.90;;;;;;;10.90;89.15;101656.75;4980589;28;20026;-76
2021/12/31 07:10:07;;;;;;;7.00;3.35;;;;;;;10.89;89.12;101653.16;4982867;28;20097;-76
2021/12/31 07:12:33;;;;;;;7.57;3.03;;;;;;;10.91;88.92;101653.03;4975856;28;20042;-76
2021/12/31 07:14:58;;;;;;;4.82;2.60;;;;;;;10.88;88.85;101643.22;4982526;28;20038;-76
2021/12/31 07:17:23;;;;;;;4.97;3.17;;;;;;;10.86;89.00;101647.00;4982943;28;20467;-77
2021/12/31 07:19:49;;;;;;;11.43;2.67;;;;;;;10.83;89.10;101658.09;4985482;28;20040;-76
2021/12/31 07:22:14;;;;;;;4.30;3.03;;;;;;;10.81;89.07;101655.44;4984001;28;20030;-76
2021/12/31 07:24:39;;;;;;;4.40;2.83;;;;;;;10.81;89.02;101647.28;4982564;28;20061;-77
2021/12/31 07:27:05;;;;;;;6.97;3.03;;;;;;;10.80;89.26;101647.38;4987384;28;20026;-76
2021/12/31 07:29:30;;;;;;;5.97;2.90;;;;;;;10.80;89.34;101658.28;4980718;28;20039;-76
2021/12/31 07:31:55;;;;;;;5.63;3.25;;;;;;;10.80;88.99;101669.16;4987626;28;20065;-76
2021/12/31 07:34:20;;;;;;;5.68;3.00;;;;;;;10.78;88.99;101666.53;4987457;28;20042;-76
2021/12/31 07:36:46;;;;;;;7.78;2.92;;;;;;;10.78;88.81;101658.38;4982183;28;20026;-76
2021/12/31 07:39:13;;;;;;;5.32;2.78;;;;;;;10.75;88.99;101657.69;4979196;28;20030;-77
2021/12/31 07:41:39;;;;;;;5.38;2.80;;;;;;;10.72;89.33;101665.06;4984871;28;20026;-76
2021/12/31 07:44:06;;;;;;;6.30;3.00;;;;;;;10.68;89.20;101658.06;4972555;28;20037;-77
2021/12/31 07:46:32;;;;;;;3.35;2.60;;;;;;;10.68;89.01;101659.91;4980100;28;20041;-76
2021/12/31 07:48:57;;;;;;;4.70;3.30;;;;;;;10.67;89.05;101664.44;4987008;28;20497;-76
2021/12/31 07:51:23;;;;;;;6.07;2.58;;;;;;;10.65;89.22;101665.53;4982535;28;20028;-76
2021/12/31 07:53:48;;;;;;;5.65;2.65;;;;;;;10.64;89.29;101680.97;4972871;28;20471;-77
2021/12/31 07:56:14;;;;;;;4.88;3.00;;;;;;;10.64;89.20;101680.09;4986148;28;20049;-76
2021/12/31 07:58:40;;;;;;;4.07;2.88;;;;;;;10.66;88.87;101675.44;4982966;28;20030;-76
2021/12/31 08:01:05;;;;;;;6.18;3.15;;;;;;;10.64;89.24;101659.19;4976536;28;20045;-77
2021/12/31 08:03:31;;;;;;;4.32;2.75;;;;;;;10.70;88.57;101674.28;4977004;28;20543;-77
2021/12/31 08:05:56;;;;;;;8.00;3.38;;;;;;;10.67;88.94;101674.44;4985239;28;20117;-76
2021/12/31 08:08:22;;;;;;;6.63;3.13;;;;;;;10.69;88.98;101676.13;4986424;28;20042;-76
2021/12/31 08:10:47;;;;;;;4.35;2.50;;;;;;;10.66;88.66;101673.56;4983809;28;20334;-75
2021/12/31 08:13:13;;;;;;;3.60;2.60;;;;;;;10.70;88.85;101671.56;4982223;28;20104;-77
2021/12/31 08:15:38;;;;;;;7.32;2.92;;;;;;;10.68;88.50;101670.78;4982186;28;20245;-76
2021/12/31 08:18:04;;;;;;;4.85;2.80;;;;;;;10.68;88.67;101663.50;4986478;28;20129;-76
2021/12/31 08:20:29;;;;;;;4.70;2.58;;;;;;;10.67;88.65;101669.88;4978937;28;20030;-76
2021/12/31 08:22:54;;;;;;;5.20;3.08;;;;;;;10.73;88.41;101674.09;4985452;28;20037;-77
2021/12/31 08:25:20;;;;;;;6.80;2.65;;;;;;;10.78;88.44;101662.94;4988660;28;20026;-77
2021/12/31 08:27:45;;;;;;;5.38;2.70;;;;;;;10.79;88.43;101664.69;4990888;28;20518;-77
2021/12/31 08:30:11;;;;;;;4.80;2.78;;;;;;;10.81;87.90;101660.03;4983611;28;20557;-77
2021/12/31 08:32:38;;;;;;;5.78;2.75;;;;;;;10.85;87.79;101647.97;4985532;28;20026;-76
2021/12/31 08:35:04;;;;;;;3.78;2.50;;;;;;;10.87;87.86;101660.53;4988809;28;20053;-77
2021/12/31 08:37:31;;;;;;;6.93;2.60;;;;;;;10.87;87.93;101676.00;4983998;28;20379;-77
2021/12/31 08:39:57;;;;;;;5.18;2.80;;;;;;;10.90;87.61;101667.63;4981345;28;20030;-77
2021/12/31 08:42:22;;;;;;;8.90;2.25;;;;;;;10.91;87.46;101664.84;4974910;28;20078;-76
2021/12/31 08:44:48;;;;;;;6.97;2.72;;;;;;;10.93;87.01;101659.28;4977264;28;20026;-77
2021/12/31 08:47:13;;;;;;;5.70;2.25;;;;;;;11.00;86.76;101657.94;4990669;28;20445;-77
2021/12/31 08:49:38;;;;;;;5.65;2.42;;;;;;;11.02;86.73;101658.72;4990443;28;20036;-77
2021/12/31 08:52:04;;;;;;;4.38;2.50;;;;;;;11.10;86.57;101653.69;4988797;28;20475;-76
2021/12/31 08:54:29;;;;;;;6.25;2.45;;;;;;;11.12;86.74;101659.91;4983948;28;20038;-77
2021/12/31 08:56:55;;;;;;;6.15;2.13;;;;;;;11.17;86.40;101641.44;4988465;28;20120;-77
2021/12/31 08:59:21;;;;;;;4.88;2.30;;;;;;;11.18;86.21;101629.56;4988595;28;20035;-76
2021/12/31 09:01:46;;;;;;;5.45;2.45;;;;;;;11.23;85.89;101634.72;4987355;28;20153;-76
2021/12/31 09:04:12;;;;;;;5.28;2.20;;;;;;;11.24;86.13;101640.09;4981867;28;20026;-77
2021/12/31 09:06:37;;;;;;;3.67;1.95;;;;;;;11.29;86.05;101645.25;4980440;28;20090;-76
2021/12/31 09:09:04;;;;;;;5.97;1.98;;;;;;;11.33;85.41;101635.91;4990275;28;20034;-76
2021/12/31 09:11:29;;;;;;;3.95;2.50;;;;;;;11.38;85.56;101638.34;4990184;28;20050;-77
2021/12/31 09:13:56;;;;;;;4.25;2.15;;;;;;;11.39;85.16;101654.59;4981894;28;20031;-76
2021/12/31 09:16:21;;;;;;;5.80;2.15;;;;;;;11.42;84.73;101667.13;4985914;28;20029;-76
2021/12/31 09:18:47;;;;;;;5.97;2.08;;;;;;;11.41;85.49;101663.53;4990195;28;20022;-76
2021/12/31 09:21:14;;;;;;;5.78;2.40;;;;;;;11.43;84.92;101663.47;4976572;28;20022;-76
2021/12/31 09:23:39;;;;;;;4.03;2.25;;;;;;;11.46;85.00;101660.50;4983506;28;20439;-76
2021/12/31 09:26:04;;;;;;;4.32;2.35;;;;;;;11.45;85.07;101651.47;4986826;28;20034;-76
2021/12/31 09:28:29;;;;;;;4.00;1.92;;;;;;;11.50;84.75;101667.53;4987812;28;20371;-76
2021/12/31 09:30:56;;;;;;;8.98;2.38;;;;;;;11.53;84.44;101661.91;4981817;28;20034;-76
2021/12/31 09:33:22;;;;;;;4.60;2.40;;;;;;;11.57;84.25;101668.03;4987968;28;20461;-76
2021/12/31 09:35:47;;;;;;;5.88;2.22;;;;;;;11.57;84.44;101670.75;4983409;28;20038;-77
2021/12/31 09:38:12;;;;;;;3.63;2.30;;;;;;;11.59;84.29;101685.16;4985857;28;20097;-76
2021/12/31 09:40:39;;;;;;;3.20;2.03;;;;;;;11.60;84.69;101678.72;4987504;28;20042;-77
2021/12/31 09:43:11;;;;;;;3.05;2.28;;;;;;;11.59;84.28;101676.97;4976237;28;20471;-75
2021/12/31 09:45:38;;;;;;;6.87;2.00;;;;;;;11.59;84.49;101666.06;4981112;28;20048;-76
2021/12/31 09:48:11;;;;;;;4.10;2.35;;;;;;;11.63;84.22;101693.03;4977792;28;20409;-76
2021/12/31 09:50:40;;;;;;;4.15;2.10;;;;;;;11.67;83.95;101691.88;4974310;28;20031;-76
2021/12/31 09:53:08;;;;;;;4.97;2.65;;;;;;;11.71;84.31;101689.84;4982246;28;20035;-76
2021/12/31 09:55:49;;;;;;;4.32;2.63;;;;;;;11.77;84.38;101700.34;4984816;28;20050;-76
2021/12/31 09:58:16;;;;;;;5.40;2.63;;;;;;;11.80;83.84;101686.53;4979955;28;20027;-77
2021/12/31 10:00:45;;;;;;;5.93;2.42;;;;;;;11.84;83.71;101704.44;4974899;28;20042;-76
2021/12/31 10:03:22;;;;;;;4.88;2.25;;;;;;;11.86;84.10;101693.47;4982135;28;20028;-76
2021/12/31 10:05:52;;;;;;;4.20;2.70;;;;;;;11.88;83.95;101691.50;4980008;28;20039;-76
2021/12/31 10:08:26;;;;;;;6.50;2.75;;;;;;;11.87;84.02;101695.22;4982166;28;20023;-76
2021/12/31 10:11:09;;;;;;;8.30;3.00;;;;;;;11.85;84.29;101697.16;4980185;28;20081;-77
2021/12/31 10:13:37;;;;;;;15.32;2.47;;;;;;;11.83;83.64;101707.28;4986129;28;20034;-76
2021/12/31 10:16:03;;;;;;;3.42;3.08;;;;;;;11.81;83.83;101687.41;4983290;28;20034;-76
2021/12/31 10:18:34;;;;;;;5.32;2.08;;;;;;;11.78;84.08;101680.28;4982520;28;20035;-77
2021/12/31 10:21:01;;;;;;;4.30;2.25;;;;;;;11.74;83.62;101665.97;4980047;28;20159;-76
2021/12/31 10:23:27;;;;;;;4.43;2.33;;;;;;;11.71;83.57;101644.38;4987401;28;20101;-75
2021/12/31 10:26:07;;;;;;;4.43;2.08;;;;;;;11.71;84.76;101673.47;4971185;28;20459;-76
2021/12/31 10:28:33;;;;;;;7.75;2.38;;;;;;;11.74;84.50;101678.72;4975959;28;20101;-76
2021/12/31 10:31:12;;;;;;;4.05;2.88;;;;;;;11.77;84.21;101672.22;4980537;28;20125;-76
2021/12/31 10:33:40;;;;;;;6.07;2.40;;;;;;;11.81;83.89;101684.66;4982982;28;20037;-77
2021/12/31 10:36:06;;;;;;;4.38;2.35;;;;;;;11.83;84.26;101672.72;4979398;28;20125;-76
2021/12/31 10:38:37;;;;;;;6.78;2.40;;;;;;;11.87;83.89;101676.13;4976447;28;20650;-76
2021/12/31 10:41:03;;;;;;;6.53;2.45;;;;;;;11.88;83.46;101661.50;4984414;28;20038;-76
2021/12/31 10:43:29;;;;;;;3.67;2.25;;;;;;;11.88;84.03;101669.69;4986046;28;20351;-76
2021/12/31 10:46:05;;;;;;;5.40;2.40;;;;;;;11.90;84.38;101681.38;4971041;28;20089;-76
2021/12/31 10:48:45;;;;;;;5.47;2.60;;;;;;;11.89;84.00;101695.97;4987439;28;20105;-76
2021/12/31 10:51:37;;;;;;;5.88;2.70;;;;;;;11.89;84.06;101685.06;4980829;28;20125;-76
2021/12/31 10:57:35;;;;;;;3.88;2.42;;;;;;;11.95;83.67;101709.22;4966474;28;20516;-76
2021/12/31 11:00:00;;;;;;;4.75;2.67;;;;;;;11.96;83.44;101702.78;4968392;28;20410;-76
2021/12/31 11:02:26;;;;;;;3.67;2.50;;;;;;;11.99;83.98;101688.97;4983432;28;20181;-76
2021/12/31 11:04:51;;;;;;;11.05;3.38;;;;;;;12.03;83.54;101685.06;4982280;28;20474;-76
2021/12/31 11:07:18;;;;;;;5.57;3.25;;;;;;;12.05;83.40;101682.25;4987294;28;20045;-76
2021/12/31 11:09:44;;;;;;;6.43;2.88;;;;;;;12.02;83.19;101666.94;4981634;28;20019;-76
2021/12/31 11:12:12;;;;;;;5.07;2.70;;;;;;;12.00;83.38;101668.91;4975653;28;20046;-77
2021/12/31 11:14:38;;;;;;;5.57;2.80;;;;;;;11.99;83.18;101661.69;4975601;28;20040;-76
2021/12/31 11:17:03;;;;;;;3.30;2.50;;;;;;;11.99;83.81;101664.44;4981549;28;20469;-75
2021/12/31 11:19:29;;;;;;;3.55;2.33;;;;;;;12.03;83.60;101665.06;4985673;28;20031;-77
2021/12/31 11:21:55;;;;;;;5.68;2.95;;;;;;;12.05;83.68;101644.94;4982677;28;20049;-75
2021/12/31 11:24:28;;;;;;;5.30;3.10;;;;;;;12.14;83.93;101660.69;4983657;28;20034;-76
2021/12/31 11:26:54;;;;;;;4.15;2.88;;;;;;;12.18;83.49;101645.88;4981877;28;20517;-76